This is the latest recevied weather packets stored in our database for station/object DW2488. If no packets are shown the sender has not sent any weather packets the latest 1 day(s).
| Time | Temp. | Humidity | Pressure | Rain* | Wind** | Luminosity | Snow |
|---|---|---|---|---|---|---|---|
| 1836274492 | 20° C | 38% | 1008.6 hPa | 0 mm | 5.36 m/s, 289° | 759 W/m² | - |
| 1778042891 | 22.78° C | 52% | 1017.1 hPa | 0 mm | 0.45 m/s, 34° | 67 W/m² | - |
| 1778041998 | 22.78° C | 56% | 1017 hPa | 0 mm | 0.45 m/s, 0° | 84 W/m² | - |
| 1778041090 | 22.78° C | 55% | 1017.1 hPa | 0 mm | 0.45 m/s, 0° | 74 W/m² | - |
| 1778040191 | 22.78° C | 54% | 1017.2 hPa | 0 mm | 0 m/s | 473 W/m² | - |
| 1778039292 | 23.33° C | 53% | 1017.4 hPa | 0 mm | 0 m/s | 541 W/m² | - |
| 1778038391 | 23.33° C | 55% | 1017.8 hPa | 0 mm | 0.45 m/s, 0° | 619 W/m² | - |
| 1778037497 | 23.33° C | 55% | 1018 hPa | 0 mm | 0.45 m/s, 0° | 603 W/m² | - |
| 1778036590 | 23.33° C | 54% | 1018.3 hPa | 0 mm | 0.45 m/s, 0° | 621 W/m² | - |
| 1778035697 | 22.78° C | 55% | 1018.4 hPa | 0 mm | 0.45 m/s, 0° | 680 W/m² | - |
| 1778034790 | 22.78° C | 56% | 1018.8 hPa | 0 mm | 0.45 m/s, 0° | 174 W/m² | - |
| 1778033899 | 22.78° C | 58% | 1019.1 hPa | 0 mm | 0.45 m/s, 0° | 675 W/m² | - |
| 1778032992 | 22.22° C | 59% | 1019.3 hPa | 0 mm | 0.45 m/s, 32° | 666 W/m² | - |
| 1778032091 | 21.67° C | 58% | 1019.7 hPa | 0 mm | 0.45 m/s, 0° | 278 W/m² | - |
| 1778031192 | 21.67° C | 57% | 1020 hPa | 0 mm | 0.45 m/s, 0° | 742 W/m² | - |
| 1778030292 | 21.11° C | 59% | 1020.2 hPa | 0 mm | 0.45 m/s, 0° | 633 W/m² | - |
| 1778029397 | 20.56° C | 58% | 1020.4 hPa | 0 mm | 0.45 m/s, 0° | 617 W/m² | - |
| 1778028492 | 19.44° C | 62% | 1020.4 hPa | 0 mm | 0.45 m/s, 217° | 599 W/m² | - |
| 1778027592 | 18.89° C | 62% | 1020.6 hPa | 0 mm | 0.45 m/s, 216° | 577 W/m² | - |
| 1778026693 | 18.89° C | 62% | 1020.7 hPa | 0 mm | 0.45 m/s, 215° | 554 W/m² | - |
| 1778025792 | 18.33° C | 64% | 1020.8 hPa | 0 mm | 0.45 m/s, 215° | 529 W/m² | - |
| 1778024892 | 17.22° C | 65% | 1020.8 hPa | 0 mm | 0 m/s | 501 W/m² | - |
| 1778023992 | 16.11° C | 69% | 1021 hPa | 0 mm | 0.45 m/s, 182° | 343 W/m² | - |
| 1778023090 | 15° C | 71% | 1020.9 hPa | 0 mm | 1.34 m/s, 182° | 432 W/m² | - |
| 1778022190 | 13.33° C | 75% | 1020.9 hPa | 0 mm | 1.34 m/s, 171° | 396 W/m² | - |
* Rain latest hour (hover to see other rain measurements)
** Current wind speed in m/s (hover to see current wind gust speed)